Aviation Digital Data Service (ADDS)

Output produced by TAFs form (2357 UTC 18 July 2018)
found at http://www.aviationweather.gov/adds/tafs/
 
METAR text: RJSH 182320Z 06003KT 360V090 2400 BCFG BR FEW002 BKN004 OVC006 21/18 Q1012 RMK 2ST002 5ST004 8ST006 A2990
Conditions at: RJSH (HACHINOHE (JMSDF, JP) observed 2320 UTC 18 July 2018
Temperature: 21.0°C (70°F)
Dewpoint: 18.0°C (64°F) [RH = 83%]
Pressure (altimeter): 29.88 inches Hg (1012.0 mb)
Winds: from the ENE (60 degrees) at 3 MPH (3 knots; 1.6 m/s)
Visibility: 1.49 miles (2.40 km)
Ceiling: 400 feet AGL
Clouds: few clouds at 200 feet AGL
broken clouds at 400 feet AGL
overcast cloud deck at 600 feet AGL
Weather: BCFG BR  (patches of fog, mist)